createdAt,value
2023-03-01T00:02:10.784Z,8.80
2023-03-01T00:04:39.826Z,8.80
2023-03-01T00:07:08.901Z,8.80
2023-03-01T00:09:39.372Z,8.80
2023-03-01T00:12:08.840Z,8.80
2023-03-01T00:14:38.346Z,8.90
2023-03-01T00:17:07.420Z,8.90
2023-03-01T00:19:38.060Z,8.90
2023-03-01T00:22:07.124Z,8.90
2023-03-01T00:24:36.063Z,8.90
2023-03-01T00:27:05.228Z,8.90
2023-03-01T00:29:34.424Z,8.90
2023-03-01T00:32:03.453Z,8.90
2023-03-01T00:34:32.552Z,9.00
2023-03-01T00:37:06.269Z,9.00
2023-03-01T00:39:35.442Z,9.00
2023-03-01T00:42:05.352Z,9.00
2023-03-01T00:44:35.398Z,9.10
2023-03-01T00:47:04.441Z,9.10
2023-03-01T00:49:34.224Z,9.10
2023-03-01T00:52:04.713Z,9.10
2023-03-01T00:54:33.928Z,9.00
2023-03-01T00:57:02.912Z,9.00
2023-03-01T00:59:32.017Z,9.00
2023-03-01T01:02:02.145Z,9.00
2023-03-01T01:04:31.151Z,9.00
2023-03-01T01:07:00.180Z,8.90
2023-03-01T01:09:30.657Z,8.90
2023-03-01T01:11:59.736Z,8.90
2023-03-01T01:14:28.951Z,8.90
2023-03-01T01:16:58.122Z,8.90
2023-03-01T01:19:28.367Z,8.90
2023-03-01T01:21:57.848Z,8.90
2023-03-01T01:24:26.911Z,8.90
2023-03-01T01:26:57.882Z,9.00
2023-03-01T01:29:26.974Z,9.00
2023-03-01T01:31:56.377Z,9.00
2023-03-01T01:34:25.460Z,8.90
2023-03-01T01:36:56.039Z,8.90
2023-03-01T01:39:25.601Z,8.90
2023-03-01T01:41:56.058Z,8.90
2023-03-01T01:44:26.825Z,8.90
2023-03-01T01:46:58.294Z,8.90
2023-03-01T01:49:33.384Z,8.90
2023-03-01T01:52:11.586Z,8.90
2023-03-01T01:54:46.711Z,8.90
2023-03-01T01:57:23.007Z,8.90
2023-03-01T01:59:55.446Z,8.90
2023-03-01T02:02:24.759Z,8.90
2023-03-01T02:05:01.509Z,9.00
2023-03-01T02:07:32.449Z,8.90
2023-03-01T02:10:01.702Z,8.90
2023-03-01T02:12:32.625Z,8.90
2023-03-01T02:15:01.684Z,8.90
2023-03-01T02:17:31.690Z,9.00
2023-03-01T02:20:16.142Z,8.90
2023-03-01T02:22:47.483Z,9.00
2023-03-01T02:25:27.994Z,9.00
2023-03-01T02:28:03.920Z,9.00
2023-03-01T02:30:35.205Z,9.00
2023-03-01T02:33:05.601Z,9.00
2023-03-01T02:35:39.723Z,9.00
2023-03-01T02:38:10.813Z,9.00
2023-03-01T02:40:41.626Z,9.00
2023-03-01T02:43:12.426Z,9.00
2023-03-01T02:45:51.641Z,8.90
2023-03-01T02:48:20.988Z,8.90
2023-03-01T02:51:06.742Z,8.90
2023-03-01T02:53:44.081Z,8.90
2023-03-01T02:56:14.148Z,8.90
2023-03-01T02:58:49.090Z,8.90
2023-03-01T03:01:21.366Z,8.90
2023-03-01T03:03:50.458Z,8.90
2023-03-01T03:06:20.749Z,8.90
2023-03-01T03:08:49.896Z,8.90
2023-03-01T03:11:18.999Z,8.90
2023-03-01T03:13:50.360Z,8.90
2023-03-01T03:16:22.901Z,8.90
2023-03-01T03:18:52.488Z,8.80
2023-03-01T03:21:21.618Z,8.80
2023-03-01T03:23:50.606Z,8.80
2023-03-01T03:26:19.616Z,8.80
2023-03-01T03:28:48.652Z,8.80
2023-03-01T03:31:17.662Z,8.80
2023-03-01T03:33:48.138Z,8.70
2023-03-01T03:36:18.863Z,8.80
2023-03-01T03:38:48.137Z,8.80
2023-03-01T03:41:18.022Z,8.80
2023-03-01T03:43:47.393Z,8.80
2023-03-01T03:46:16.426Z,8.80
2023-03-01T03:48:48.048Z,8.80
2023-03-01T03:51:19.866Z,8.80
2023-03-01T03:53:48.959Z,8.80
2023-03-01T03:56:18.012Z,8.70
2023-03-01T03:58:47.038Z,8.70
2023-03-01T04:01:16.080Z,8.70
2023-03-01T04:03:47.668Z,8.70
2023-03-01T04:06:18.136Z,8.70
2023-03-01T04:08:47.213Z,8.70
2023-03-01T04:11:28.417Z,8.70
2023-03-01T04:14:00.153Z,8.70
2023-03-01T04:16:29.767Z,8.70
2023-03-01T04:19:00.794Z,8.70
2023-03-01T04:21:31.414Z,8.70
2023-03-01T04:24:00.436Z,8.70
2023-03-01T04:26:29.706Z,8.60
2023-03-01T04:28:59.954Z,8.70
2023-03-01T04:31:29.441Z,8.60
2023-03-01T04:33:58.800Z,8.70
2023-03-01T04:36:31.371Z,8.60
2023-03-01T04:39:00.855Z,8.60
2023-03-01T04:41:29.881Z,8.60
2023-03-01T04:44:01.209Z,8.60
2023-03-01T04:46:30.364Z,8.60
2023-03-01T04:48:59.760Z,8.70
2023-03-01T04:51:30.306Z,8.70
2023-03-01T04:53:59.315Z,8.60
2023-03-01T04:56:28.597Z,8.60
2023-03-01T04:58:57.953Z,8.60
2023-03-01T05:01:27.071Z,8.70
2023-03-01T05:03:56.109Z,8.70
2023-03-01T05:06:25.142Z,8.70
2023-03-01T05:08:55.562Z,8.60
2023-03-01T05:11:24.569Z,8.60
2023-03-01T05:13:56.001Z,8.60
2023-03-01T05:16:25.121Z,8.60
2023-03-01T05:18:54.136Z,8.60
2023-03-01T05:21:23.231Z,8.60
2023-03-01T05:23:52.620Z,8.60
2023-03-01T05:26:28.927Z,8.60
2023-03-01T05:29:00.529Z,8.60
2023-03-01T05:31:31.897Z,8.60
2023-03-01T05:34:00.913Z,8.50
2023-03-01T05:36:30.287Z,8.60
2023-03-01T05:38:59.497Z,8.60
2023-03-01T05:41:30.336Z,8.50
2023-03-01T05:43:59.450Z,8.50
2023-03-01T05:46:28.768Z,8.60
2023-03-01T05:48:58.656Z,8.60
2023-03-01T05:51:27.688Z,8.60
2023-03-01T05:53:56.646Z,8.60
2023-03-01T05:56:25.624Z,8.60
2023-03-01T05:58:56.031Z,8.60
2023-03-01T06:01:25.010Z,8.60
2023-03-01T06:03:54.081Z,8.60
2023-03-01T06:06:23.087Z,8.60
2023-03-01T06:08:52.481Z,8.50
2023-03-01T06:11:21.655Z,8.50
2023-03-01T06:13:50.779Z,8.50
2023-03-01T06:16:21.220Z,8.50
2023-03-01T06:18:50.241Z,8.40
2023-03-01T06:21:19.327Z,8.40
2023-03-01T06:23:48.352Z,8.40
2023-03-01T06:26:17.458Z,8.40
2023-03-01T06:28:47.688Z,8.50
2023-03-01T06:31:16.961Z,8.50
2023-03-01T06:33:47.458Z,8.50
2023-03-01T06:36:19.683Z,8.50
2023-03-01T06:38:48.832Z,8.50
2023-03-01T06:41:17.896Z,8.60
2023-03-01T06:43:46.928Z,8.60
2023-03-01T06:46:16.027Z,8.70
2023-03-01T06:48:46.450Z,8.70
2023-03-01T06:51:15.477Z,8.60
2023-03-01T06:53:44.497Z,8.60
2023-03-01T06:56:13.511Z,8.60
2023-03-01T06:58:42.822Z,8.60
2023-03-01T07:01:12.188Z,8.50
2023-03-01T07:03:41.348Z,8.50
2023-03-01T07:06:12.082Z,8.40
2023-03-01T07:08:41.413Z,8.40
2023-03-01T07:11:10.593Z,8.40
2023-03-01T07:13:39.618Z,8.40
2023-03-01T07:16:09.565Z,8.40
2023-03-01T07:18:38.973Z,8.40
2023-03-01T07:21:11.279Z,8.40
2023-03-01T07:23:43.121Z,8.40
2023-03-01T07:26:12.605Z,8.40
2023-03-01T07:28:41.628Z,8.40
2023-03-01T07:31:10.699Z,8.40
2023-03-01T07:33:42.635Z,8.40
2023-03-01T07:36:11.903Z,8.40
2023-03-01T07:38:42.376Z,8.40
2023-03-01T07:41:11.370Z,8.40
2023-03-01T07:43:40.399Z,8.40
2023-03-01T07:46:09.725Z,8.40
2023-03-01T07:48:38.766Z,8.30
2023-03-01T07:51:09.321Z,8.30
2023-03-01T07:53:38.334Z,8.40
2023-03-01T07:56:11.065Z,8.40
2023-03-01T07:58:42.418Z,8.40
2023-03-01T08:01:13.426Z,8.40
2023-03-01T08:03:43.472Z,8.40
2023-03-01T08:06:14.772Z,8.40
2023-03-01T08:08:43.613Z,8.40
2023-03-01T08:11:15.542Z,8.30
2023-03-01T08:13:45.097Z,8.40
2023-03-01T08:16:16.070Z,8.40
2023-03-01T08:18:45.855Z,8.40
2023-03-01T08:21:16.865Z,8.40
2023-03-01T08:23:46.062Z,8.40
2023-03-01T08:26:19.587Z,8.30
2023-03-01T08:28:51.021Z,8.30
2023-03-01T08:31:22.525Z,8.30
2023-03-01T08:33:56.397Z,8.30
2023-03-01T08:36:26.651Z,8.20
2023-03-01T08:38:56.653Z,8.20
2023-03-01T08:41:27.684Z,8.10
2023-03-01T08:44:00.010Z,8.10
2023-03-01T08:46:30.315Z,8.10
2023-03-01T08:48:59.581Z,8.20
2023-03-01T08:51:32.318Z,8.10
2023-03-01T08:54:01.366Z,8.10
2023-03-01T08:56:32.098Z,8.10
2023-03-01T08:59:01.426Z,8.10
2023-03-01T09:01:33.236Z,8.10
2023-03-01T09:04:02.364Z,8.20
2023-03-01T09:06:34.054Z,8.20
2023-03-01T09:09:03.745Z,8.20
2023-03-01T09:11:34.690Z,8.30
2023-03-01T09:14:07.164Z,8.30
2023-03-01T09:16:37.173Z,8.30
2023-03-01T09:19:06.818Z,8.20
2023-03-01T09:21:40.459Z,8.20
2023-03-01T09:24:15.399Z,8.10
2023-03-01T09:26:48.869Z,8.10
2023-03-01T09:29:19.469Z,8.20
2023-03-01T09:31:48.562Z,8.20
2023-03-01T09:34:24.078Z,8.30
2023-03-01T09:36:53.252Z,8.30
2023-03-01T09:39:22.575Z,8.30
2023-03-01T09:42:03.128Z,8.40
2023-03-01T09:44:38.997Z,8.40
2023-03-01T09:47:11.883Z,8.40
2023-03-01T09:49:49.705Z,8.50
2023-03-01T09:52:27.233Z,8.50
2023-03-01T09:55:00.373Z,8.50
2023-03-01T09:57:39.083Z,8.50
2023-03-01T10:00:26.282Z,8.40
2023-03-01T10:03:03.478Z,8.40
2023-03-01T10:05:39.268Z,8.40
2023-03-01T10:08:27.273Z,8.40
2023-03-01T10:10:56.471Z,8.40
2023-03-01T10:13:31.805Z,8.40
2023-03-01T10:16:06.291Z,8.40
2023-03-01T10:18:39.162Z,8.40
2023-03-01T10:21:16.950Z,8.40
2023-03-01T10:23:46.012Z,8.40
2023-03-01T10:26:40.514Z,8.30
2023-03-01T10:29:13.284Z,8.30
2023-03-01T10:31:45.457Z,8.30
2023-03-01T10:34:17.212Z,8.30
2023-03-01T10:36:49.471Z,8.30
2023-03-01T10:39:21.346Z,8.40
2023-03-01T10:41:57.604Z,8.40
2023-03-01T10:44:43.908Z,8.40
2023-03-01T10:47:21.321Z,8.40
2023-03-01T10:50:02.231Z,8.40
2023-03-01T10:52:34.738Z,8.40
2023-03-01T10:55:23.590Z,8.40
2023-03-01T10:58:07.894Z,8.50
2023-03-01T11:00:49.219Z,8.50
2023-03-01T11:03:21.843Z,8.60
2023-03-01T11:05:58.198Z,8.60
2023-03-01T11:08:39.616Z,8.70
2023-03-01T11:11:25.832Z,8.70
2023-03-01T11:13:58.205Z,8.70
2023-03-01T11:16:35.332Z,8.70
2023-03-01T11:19:21.603Z,8.80
2023-03-01T11:21:58.654Z,8.80
2023-03-01T11:24:35.178Z,8.80
2023-03-01T11:27:08.462Z,8.80
2023-03-01T11:29:48.552Z,8.80
2023-03-01T11:32:22.252Z,8.80
2023-03-01T11:34:56.902Z,8.90
2023-03-01T11:37:36.075Z,9.00
2023-03-01T11:40:15.735Z,9.20
2023-03-01T11:43:12.855Z,9.30
2023-03-01T11:45:59.546Z,9.50
2023-03-01T11:48:49.237Z,9.70
2023-03-01T11:51:27.256Z,9.70
2023-03-01T11:54:16.298Z,9.80
2023-03-01T11:56:49.470Z,9.80
2023-03-01T11:59:41.453Z,9.80
2023-03-01T12:02:36.182Z,9.70
2023-03-01T12:05:26.661Z,9.60
2023-03-01T12:08:03.994Z,9.60
2023-03-01T12:10:42.951Z,9.50
2023-03-01T12:13:39.731Z,9.50
2023-03-01T12:16:38.772Z,9.60
2023-03-01T12:19:26.920Z,9.70
2023-03-01T12:22:18.716Z,9.80
2023-03-01T12:25:23.190Z,9.80
2023-03-01T12:28:24.844Z,9.80
2023-03-01T12:31:05.348Z,9.90
2023-03-01T12:33:46.141Z,9.90
2023-03-01T12:36:33.316Z,9.80
2023-03-01T12:39:18.425Z,9.80
2023-03-01T12:41:53.045Z,9.70
2023-03-01T12:44:43.862Z,9.70
2023-03-01T12:47:29.037Z,9.80
2023-03-01T12:50:02.890Z,9.80
2023-03-01T12:52:41.132Z,9.70
2023-03-01T12:55:28.370Z,9.60
2023-03-01T12:58:10.707Z,9.60
2023-03-01T13:00:47.730Z,9.60
2023-03-01T13:03:27.708Z,9.60
2023-03-01T13:06:09.863Z,9.70
2023-03-01T13:08:43.662Z,9.70
2023-03-01T13:11:19.868Z,9.70
2023-03-01T13:13:49.988Z,9.60
2023-03-01T13:16:46.169Z,9.60
2023-03-01T13:19:18.085Z,9.60
2023-03-01T13:21:48.482Z,9.70
2023-03-01T13:24:28.560Z,9.70
2023-03-01T13:27:30.228Z,9.70
2023-03-01T13:30:04.562Z,9.70
2023-03-01T13:32:44.886Z,9.60
2023-03-01T13:35:43.636Z,9.50
2023-03-01T13:38:46.920Z,9.50
2023-03-01T13:41:17.495Z,9.40
2023-03-01T13:43:49.351Z,9.40
2023-03-01T13:46:22.306Z,9.40
2023-03-01T13:48:54.318Z,9.50
2023-03-01T13:51:30.097Z,9.50
2023-03-01T13:54:01.076Z,9.50
2023-03-01T13:56:39.029Z,9.50
2023-03-01T13:59:17.537Z,9.50
2023-03-01T14:01:53.727Z,9.50
2023-03-01T14:04:26.658Z,9.50
2023-03-01T14:07:11.848Z,9.50
2023-03-01T14:09:44.684Z,9.40
2023-03-01T14:12:27.958Z,9.40
2023-03-01T14:15:04.713Z,9.50
2023-03-01T14:17:48.485Z,9.50
2023-03-01T14:20:21.571Z,9.50
2023-03-01T14:22:52.789Z,9.60
2023-03-01T14:25:33.108Z,9.50
2023-03-01T14:28:06.330Z,9.50
2023-03-01T14:30:40.676Z,9.40
2023-03-01T14:33:22.460Z,9.50
2023-03-01T14:35:57.634Z,9.40
2023-03-01T14:38:33.918Z,9.30
2023-03-01T14:41:07.223Z,9.40
2023-03-01T14:43:37.611Z,9.40
2023-03-01T14:46:08.215Z,9.40
2023-03-01T14:48:37.315Z,9.50
2023-03-01T14:51:08.373Z,9.50
2023-03-01T14:53:50.945Z,9.50
2023-03-01T14:56:20.522Z,9.50
2023-03-01T14:58:53.985Z,9.40
2023-03-01T15:01:24.933Z,9.40
2023-03-01T15:03:54.648Z,9.30
2023-03-01T15:06:25.673Z,9.30
2023-03-01T15:08:57.935Z,9.30
2023-03-01T15:11:30.405Z,9.30
2023-03-01T15:14:03.183Z,9.20
2023-03-01T15:16:35.683Z,9.30
2023-03-01T15:19:06.880Z,9.40
2023-03-01T15:21:37.718Z,9.50
2023-03-01T15:24:20.489Z,9.50
2023-03-01T15:26:56.254Z,9.30
2023-03-01T15:29:30.896Z,9.30
2023-03-01T15:32:07.121Z,9.20
2023-03-01T15:34:37.930Z,9.20
2023-03-01T15:37:09.818Z,9.20
2023-03-01T15:39:42.198Z,9.20
2023-03-01T15:42:12.799Z,9.10
2023-03-01T15:44:46.154Z,9.10
2023-03-01T15:47:29.092Z,9.10
2023-03-01T15:49:59.550Z,9.10
2023-03-01T15:52:31.081Z,9.00
2023-03-01T15:55:03.449Z,9.00
2023-03-01T15:57:33.075Z,9.00
2023-03-01T16:00:02.407Z,9.10
2023-03-01T16:02:36.657Z,9.10
2023-03-01T16:05:06.803Z,9.10
2023-03-01T16:07:40.851Z,9.10
2023-03-01T16:10:10.513Z,9.20
2023-03-01T16:12:40.239Z,9.10
2023-03-01T16:15:17.869Z,9.20
2023-03-01T16:17:48.663Z,9.20
2023-03-01T16:20:30.030Z,9.20
2023-03-01T16:23:01.187Z,9.20
2023-03-01T16:25:30.784Z,9.20
2023-03-01T16:28:04.635Z,9.10
2023-03-01T16:30:36.230Z,9.10
2023-03-01T16:33:28.513Z,9.10
2023-03-01T16:35:59.058Z,9.00
2023-03-01T16:38:28.266Z,9.10
2023-03-01T16:40:57.308Z,9.00
2023-03-01T16:43:26.896Z,9.00
2023-03-01T16:45:56.039Z,9.00
2023-03-01T16:48:26.642Z,9.10
2023-03-01T16:51:00.433Z,9.10
2023-03-01T16:53:30.184Z,9.10
2023-03-01T16:56:00.710Z,9.10
2023-03-01T16:58:29.767Z,9.20
2023-03-01T17:00:59.134Z,9.10
2023-03-01T17:03:29.757Z,9.10
2023-03-01T17:05:58.785Z,9.10
2023-03-01T17:08:27.834Z,9.00
2023-03-01T17:10:56.851Z,9.00
2023-03-01T17:13:26.248Z,9.00
2023-03-01T17:15:55.430Z,9.00
2023-03-01T17:18:24.426Z,9.00
2023-03-01T17:20:54.969Z,9.00
2023-03-01T17:23:24.071Z,9.00
2023-03-01T17:25:55.839Z,9.00
2023-03-01T17:28:25.722Z,9.00
2023-03-01T17:30:55.034Z,9.00
2023-03-01T17:33:24.400Z,9.00
2023-03-01T17:35:54.907Z,9.00
2023-03-01T17:38:24.363Z,9.00
2023-03-01T17:40:53.522Z,9.00
2023-03-01T17:43:25.910Z,9.00
2023-03-01T17:45:59.004Z,9.00
2023-03-01T17:48:28.296Z,9.00
2023-03-01T17:51:00.188Z,8.90
2023-03-01T17:53:30.133Z,8.90
2023-03-01T17:56:03.711Z,8.90
2023-03-01T17:58:34.375Z,8.90
2023-03-01T18:01:15.012Z,9.00
2023-03-01T18:03:46.562Z,8.90
2023-03-01T18:06:20.415Z,8.90
2023-03-01T18:08:50.833Z,9.00
2023-03-01T18:11:20.872Z,9.00
2023-03-01T18:13:51.178Z,9.00
2023-03-01T18:16:21.636Z,9.00
2023-03-01T18:18:55.760Z,9.00
2023-03-01T18:21:26.518Z,9.00
2023-03-01T18:23:56.144Z,9.00
2023-03-01T18:26:25.764Z,9.00
2023-03-01T18:28:55.477Z,8.90
2023-03-01T18:31:25.612Z,9.00
2023-03-01T18:33:56.234Z,9.00
2023-03-01T18:36:28.575Z,9.00
2023-03-01T18:38:57.765Z,9.00
2023-03-01T18:41:28.718Z,9.00
2023-03-01T18:43:58.606Z,8.90
2023-03-01T18:46:28.048Z,9.00
2023-03-01T18:48:57.412Z,8.90
2023-03-01T18:51:30.333Z,8.90
2023-03-01T18:54:03.300Z,8.90
2023-03-01T18:56:35.267Z,9.00
2023-03-01T18:59:05.128Z,9.00
2023-03-01T19:01:37.218Z,9.00
2023-03-01T19:04:09.177Z,9.00
2023-03-01T19:06:39.933Z,9.00
2023-03-01T19:09:11.419Z,9.00
2023-03-01T19:11:40.720Z,9.00
2023-03-01T19:14:09.769Z,9.00
2023-03-01T19:16:38.961Z,9.00
2023-03-01T19:19:09.697Z,9.10
2023-03-01T19:21:40.098Z,9.10
2023-03-01T19:24:09.350Z,9.10
2023-03-01T19:26:41.907Z,9.10
2023-03-01T19:29:13.725Z,9.10
2023-03-01T19:31:42.742Z,9.10
2023-03-01T19:34:12.702Z,9.10
2023-03-01T19:36:44.542Z,9.20
2023-03-01T19:39:14.662Z,9.20
2023-03-01T19:41:43.950Z,9.20
2023-03-01T19:44:13.925Z,9.20
2023-03-01T19:46:43.467Z,9.20
2023-03-01T19:49:12.649Z,9.10
2023-03-01T19:51:43.215Z,9.20
2023-03-01T19:54:14.823Z,9.20
2023-03-01T19:56:43.847Z,9.20
2023-03-01T19:59:13.096Z,9.20
2023-03-01T20:01:43.546Z,9.10
2023-03-01T20:04:14.000Z,9.10
2023-03-01T20:06:46.170Z,9.10
2023-03-01T20:09:21.860Z,9.10
2023-03-01T20:11:52.172Z,9.10
2023-03-01T20:14:23.869Z,9.10
2023-03-01T20:16:53.540Z,9.10
2023-03-01T20:19:22.648Z,9.10
2023-03-01T20:21:53.100Z,9.10
2023-03-01T20:24:22.648Z,9.10
2023-03-01T20:26:51.753Z,9.10
2023-03-01T20:29:21.889Z,9.10
2023-03-01T20:31:51.663Z,9.10
2023-03-01T20:34:21.705Z,9.10
2023-03-01T20:36:52.260Z,9.10
2023-03-01T20:39:21.457Z,9.10
2023-03-01T20:41:50.535Z,9.10
2023-03-01T20:44:19.618Z,9.10
2023-03-01T20:46:48.683Z,9.10
2023-03-01T20:49:17.879Z,9.10
2023-03-01T20:51:46.951Z,9.10
2023-03-01T20:54:17.486Z,9.10
2023-03-01T20:56:46.519Z,9.10
2023-03-01T20:59:16.002Z,9.10
2023-03-01T21:01:45.126Z,9.10
2023-03-01T21:04:14.351Z,9.10
2023-03-01T21:06:43.701Z,9.20
2023-03-01T21:09:13.186Z,9.10
2023-03-01T21:11:43.647Z,9.10
2023-03-01T21:14:13.333Z,9.10
2023-03-01T21:16:45.794Z,9.00
2023-03-01T21:19:15.153Z,9.00
2023-03-01T21:21:44.181Z,9.00
2023-03-01T21:24:13.554Z,9.10
2023-03-01T21:26:44.142Z,9.10
2023-03-01T21:29:13.411Z,9.10
2023-03-01T21:31:42.709Z,9.10
2023-03-01T21:34:14.644Z,9.10
2023-03-01T21:36:43.790Z,9.10
2023-03-01T21:39:13.057Z,9.10
2023-03-01T21:41:43.631Z,9.00
2023-03-01T21:44:12.656Z,9.00
2023-03-01T21:46:42.259Z,9.00
2023-03-01T21:49:12.552Z,9.00
2023-03-01T21:51:42.058Z,9.10
2023-03-01T21:54:13.389Z,9.10
2023-03-01T21:56:44.042Z,9.10
2023-03-01T21:59:15.492Z,9.00
2023-03-01T22:01:45.166Z,9.10
2023-03-01T22:04:14.507Z,9.10
2023-03-01T22:06:45.422Z,9.00
2023-03-01T22:09:16.598Z,9.00
2023-03-01T22:11:49.932Z,9.00
2023-03-01T22:14:20.212Z,9.00
2023-03-01T22:16:51.677Z,9.00
2023-03-01T22:19:21.949Z,9.00
2023-03-01T22:21:53.079Z,8.90
2023-03-01T22:24:24.776Z,9.00
2023-03-01T22:26:55.586Z,9.00
2023-03-01T22:29:26.543Z,8.90
2023-03-01T22:31:56.884Z,8.90
2023-03-01T22:34:26.818Z,8.90
2023-03-01T22:36:57.276Z,8.90
2023-03-01T22:39:26.441Z,8.90
2023-03-01T22:41:57.010Z,8.90
2023-03-01T22:44:26.221Z,8.90
2023-03-01T22:46:55.321Z,8.90
2023-03-01T22:49:25.292Z,9.00
2023-03-01T22:51:54.326Z,9.00
2023-03-01T22:54:23.522Z,8.90
2023-03-01T22:56:52.595Z,8.90
2023-03-01T22:59:24.009Z,8.90
2023-03-01T23:01:54.166Z,8.90
2023-03-01T23:04:24.274Z,8.90
2023-03-01T23:06:54.952Z,8.90
2023-03-01T23:09:26.581Z,8.80
2023-03-01T23:11:56.555Z,8.80
2023-03-01T23:14:30.086Z,8.80
2023-03-01T23:17:00.731Z,8.70
2023-03-01T23:19:30.716Z,8.80
2023-03-01T23:21:59.812Z,8.80
2023-03-01T23:24:32.075Z,8.70
2023-03-01T23:27:02.366Z,8.80
2023-03-01T23:29:33.507Z,8.80
2023-03-01T23:32:03.033Z,8.80
2023-03-01T23:34:32.293Z,8.80
2023-03-01T23:37:01.445Z,8.80
2023-03-01T23:39:32.170Z,8.70
2023-03-01T23:42:01.321Z,8.70
2023-03-01T23:44:30.402Z,8.70
2023-03-01T23:47:01.119Z,8.70
2023-03-01T23:49:30.342Z,8.80
2023-03-01T23:52:01.531Z,8.70
2023-03-01T23:54:30.708Z,8.70
2023-03-01T23:56:59.946Z,8.70
2023-03-01T23:59:29.032Z,8.70
